Time;durP1;ratioP1;P1;durP2;ratioP2;P2;SDS_P1;SDS_P2;PMS_P1;PMS_P2;Temp;Humidity;BMP_temperature;BMP_pressure;BME280_temperature;BME280_humidity;BME280_pressure;Samples;Min_cycle;Max_cycle;Signal;HPM_P1;HPM_P2
2022/09/20 00:01:53;;;;;;;0.73;0.63;;;8.50;99.90;;;;;;5006397;28;20030;-76
2022/09/20 00:04:19;;;;;;;0.85;0.80;;;8.50;99.90;;;;;;4999206;28;20145;-76
2022/09/20 00:06:44;;;;;;;0.60;0.60;;;8.40;99.90;;;;;;5000786;28;20037;-76
2022/09/20 00:09:11;;;;;;;1.40;0.60;;;8.40;99.90;;;;;;4995542;28;20026;-76
2022/09/20 00:11:36;;;;;;;0.60;0.60;;;8.40;99.90;;;;;;5003684;28;20022;-76
2022/09/20 00:14:04;;;;;;;1.00;0.65;;;8.40;99.90;;;;;;4990663;28;20030;-76
2022/09/20 00:16:33;;;;;;;1.20;0.82;;;8.40;99.90;;;;;;5003775;28;20052;-76
2022/09/20 00:19:01;;;;;;;1.95;0.88;;;8.30;99.90;;;;;;4987042;28;20068;-76
2022/09/20 00:21:29;;;;;;;1.38;0.70;;;8.30;99.90;;;;;;5004277;28;20030;-76
2022/09/20 00:23:56;;;;;;;0.80;0.80;;;8.30;99.90;;;;;;5002972;28;20026;-75
2022/09/20 00:26:21;;;;;;;8.32;0.70;;;8.40;99.90;;;;;;5000928;28;20105;-76
2022/09/20 00:28:47;;;;;;;0.50;0.50;;;8.40;99.90;;;;;;4998807;28;20165;-76
2022/09/20 00:31:14;;;;;;;0.70;0.70;;;8.30;99.90;;;;;;5002791;28;20026;-76
2022/09/20 00:36:40;;;;;;;0.87;0.60;;;8.30;99.90;;;;;;4945223;29;20043;-76
2022/09/20 00:39:06;;;;;;;1.27;0.60;;;8.30;99.90;;;;;;4985226;28;20087;-76
2022/09/20 00:41:32;;;;;;;0.50;0.50;;;8.30;99.90;;;;;;4994253;28;20056;-76
2022/09/20 00:43:57;;;;;;;0.95;0.63;;;8.30;99.90;;;;;;5001890;28;20484;-76
2022/09/20 00:46:42;;;;;;;1.30;1.10;;;8.30;99.90;;;;;;4993805;28;20034;-76
2022/09/20 00:49:17;;;;;;;0.55;0.55;;;8.20;99.90;;;;;;5000875;28;20077;-76
2022/09/20 00:51:48;;;;;;;0.60;0.60;;;8.20;99.90;;;;;;4998608;28;20029;-76
2022/09/20 00:54:16;;;;;;;1.02;0.70;;;8.20;99.90;;;;;;5006965;28;20080;-77
2022/09/20 00:56:42;;;;;;;0.80;0.60;;;8.10;99.90;;;;;;4997125;28;20042;-76
2022/09/20 00:59:20;;;;;;;0.88;0.80;;;8.10;99.90;;;;;;5001749;28;20037;-76
2022/09/20 01:01:55;;;;;;;0.88;0.70;;;8.10;99.90;;;;;;5002102;28;20038;-76
2022/09/20 01:04:22;;;;;;;0.73;0.60;;;8.00;99.90;;;;;;5009537;28;20568;-76
2022/09/20 01:06:52;;;;;;;0.73;0.73;;;8.10;99.90;;;;;;5006924;28;20108;-76
2022/09/20 01:09:17;;;;;;;0.88;0.77;;;8.10;99.90;;;;;;5009808;28;20504;-76
2022/09/20 01:11:44;;;;;;;0.60;0.60;;;8.20;99.90;;;;;;5007880;28;20026;-76
2022/09/20 01:14:12;;;;;;;1.27;0.63;;;8.10;99.90;;;;;;5002194;28;20034;-76
2022/09/20 01:16:38;;;;;;;1.90;0.70;;;8.10;99.90;;;;;;5009700;28;20022;-76
2022/09/20 01:19:16;;;;;;;0.88;0.73;;;8.10;99.90;;;;;;5006455;28;20065;-76
2022/09/20 01:21:45;;;;;;;0.63;0.60;;;8.00;99.90;;;;;;5007723;28;20033;-76
2022/09/20 01:24:31;;;;;;;0.77;0.57;;;8.00;99.90;;;;;;5001113;28;20556;-76
2022/09/20 01:27:17;;;;;;;0.50;0.50;;;8.10;99.90;;;;;;5006675;28;20038;-76
2022/09/20 01:30:05;;;;;;;0.50;0.50;;;8.20;99.90;;;;;;5007670;28;20031;-76
2022/09/20 01:33:06;;;;;;;1.27;0.65;;;8.20;99.90;;;;;;5007086;28;20026;-76
2022/09/20 01:35:34;;;;;;;0.55;0.55;;;8.20;99.90;;;;;;5000509;28;20030;-76
2022/09/20 01:38:08;;;;;;;0.57;0.52;;;8.20;99.90;;;;;;4997315;28;20061;-75
2022/09/20 01:41:02;;;;;;;0.70;0.70;;;8.20;99.90;;;;;;5010225;28;20095;-76
2022/09/20 01:43:54;;;;;;;0.90;0.85;;;8.10;99.90;;;;;;5005083;28;20033;-76
2022/09/20 01:46:31;;;;;;;0.77;0.50;;;8.10;99.90;;;;;;4996203;28;20057;-76
2022/09/20 01:49:15;;;;;;;0.80;0.68;;;8.00;99.90;;;;;;5007058;28;20488;-76
2022/09/20 01:52:03;;;;;;;0.60;0.60;;;8.00;99.90;;;;;;5004579;28;20030;-76
2022/09/20 01:55:07;;;;;;;0.77;0.70;;;8.00;99.90;;;;;;5001050;28;20026;-76
2022/09/20 01:58:04;;;;;;;0.63;0.63;;;8.00;99.90;;;;;;5001776;28;20054;-76
2022/09/20 02:00:57;;;;;;;1.98;0.45;;;8.10;99.90;;;;;;5009307;28;20553;-77
2022/09/20 02:03:53;;;;;;;0.55;0.55;;;8.00;99.90;;;;;;5004655;28;20065;-76
2022/09/20 02:06:41;;;;;;;1.25;0.60;;;8.00;99.90;;;;;;5007180;28;20034;-76
2022/09/20 02:09:37;;;;;;;0.70;0.70;;;8.10;99.90;;;;;;5004924;28;20021;-76
2022/09/20 02:12:21;;;;;;;1.02;0.60;;;8.10;99.90;;;;;;5002278;28;20422;-76
2022/09/20 02:15:11;;;;;;;0.75;0.75;;;8.10;99.90;;;;;;4993143;28;20036;-76
2022/09/20 02:17:50;;;;;;;2.17;0.70;;;8.20;99.90;;;;;;4998058;28;20021;-76
2022/09/20 02:21:04;;;;;;;0.88;0.75;;;8.30;99.90;;;;;;4994985;28;20050;-76
2022/09/20 02:23:47;;;;;;;0.70;0.70;;;8.30;99.90;;;;;;4950704;28;20042;-75
2022/09/20 02:26:45;;;;;;;0.80;0.57;;;8.40;99.90;;;;;;5007394;28;20121;-76
2022/09/20 02:29:59;;;;;;;0.65;0.65;;;8.40;99.90;;;;;;4993274;28;20030;-75
2022/09/20 02:32:39;;;;;;;0.60;0.60;;;8.50;99.90;;;;;;4999946;28;20089;-75
2022/09/20 02:35:35;;;;;;;2.92;1.00;;;8.50;99.90;;;;;;5007420;28;20100;-75
2022/09/20 02:38:16;;;;;;;0.57;0.50;;;8.60;99.90;;;;;;5004297;28;20148;-76
2022/09/20 02:40:58;;;;;;;0.70;0.50;;;8.70;99.90;;;;;;5001886;28;20473;-76
2022/09/20 02:43:46;;;;;;;0.60;0.55;;;8.70;99.90;;;;;;5007746;28;20038;-75
2022/09/20 02:46:40;;;;;;;0.70;0.68;;;8.70;99.90;;;;;;5002306;28;20052;-75
2022/09/20 02:49:30;;;;;;;0.50;0.50;;;8.60;99.90;;;;;;5003609;28;20034;-75
2022/09/20 02:52:29;;;;;;;0.70;0.70;;;8.50;99.90;;;;;;5000536;28;20034;-75
2022/09/20 02:55:17;;;;;;;0.60;0.57;;;8.60;99.90;;;;;;5004700;28;20575;-75
2022/09/20 02:58:04;;;;;;;0.50;0.50;;;8.60;99.90;;;;;;5005427;28;20559;-75
2022/09/20 03:00:43;;;;;;;0.55;0.50;;;8.60;99.90;;;;;;5005734;28;20041;-78
2022/09/20 03:03:33;;;;;;;0.45;0.45;;;8.50;99.90;;;;;;5011822;28;20026;-78
2022/09/20 03:06:19;;;;;;;0.60;0.60;;;8.60;99.90;;;;;;5004033;28;20030;-75
2022/09/20 03:08:59;;;;;;;0.52;0.52;;;8.60;99.90;;;;;;5004412;28;20038;-74
2022/09/20 03:12:02;;;;;;;0.50;0.50;;;8.60;99.90;;;;;;5001910;28;20048;-79
2022/09/20 03:14:35;;;;;;;0.68;0.68;;;8.60;99.90;;;;;;5000519;28;20124;-78
2022/09/20 03:17:20;;;;;;;0.50;0.50;;;8.60;99.90;;;;;;4997746;28;20094;-78
2022/09/20 03:20:29;;;;;;;2.50;1.67;;;8.70;99.90;;;;;;5001569;28;20052;-79
2022/09/20 03:23:21;;;;;;;0.40;0.40;;;8.70;99.90;;;;;;4927276;28;20126;-78
2022/09/20 03:26:06;;;;;;;0.55;0.55;;;8.70;99.90;;;;;;4996075;28;20158;-78
2022/09/20 03:28:56;;;;;;;0.50;0.50;;;8.70;99.90;;;;;;4997362;28;20030;-80
2022/09/20 03:31:38;;;;;;;0.85;0.70;;;8.80;99.90;;;;;;5001737;28;20462;-81
2022/09/20 03:34:24;;;;;;;0.95;0.85;;;8.80;99.90;;;;;;4997433;28;20109;-81
2022/09/20 03:37:03;;;;;;;1.45;0.60;;;8.80;99.90;;;;;;5006097;28;20092;-81
2022/09/20 03:40:05;;;;;;;0.55;0.55;;;8.70;99.90;;;;;;5000245;28;20025;-75
2022/09/20 03:42:30;;;;;;;0.73;0.60;;;8.80;99.90;;;;;;5001109;28;20033;-78
2022/09/20 03:45:21;;;;;;;0.80;0.80;;;8.80;99.90;;;;;;4998843;28;20038;-81
2022/09/20 03:48:24;;;;;;;0.60;0.60;;;8.80;99.90;;;;;;5005801;28;20032;-81
2022/09/20 03:51:03;;;;;;;0.52;0.52;;;8.90;99.90;;;;;;5013384;28;20070;-79
2022/09/20 03:53:57;;;;;;;0.60;0.60;;;8.90;99.90;;;;;;5014483;28;20343;-78
2022/09/20 03:56:51;;;;;;;0.50;0.50;;;8.90;99.90;;;;;;5010703;28;20045;-78
2022/09/20 03:59:47;;;;;;;2.00;0.60;;;8.90;99.90;;;;;;5006096;28;20045;-79
2022/09/20 04:02:40;;;;;;;0.43;0.43;;;8.90;99.90;;;;;;5009558;28;20033;-78
2022/09/20 04:05:15;;;;;;;1.48;1.17;;;9.00;99.90;;;;;;5006719;28;20044;-79
2022/09/20 04:08:24;;;;;;;1.52;0.73;;;9.00;99.90;;;;;;5016325;28;20053;-79
2022/09/20 04:11:06;;;;;;;0.63;0.40;;;9.00;99.90;;;;;;5006204;28;20440;-79
2022/09/20 04:13:49;;;;;;;0.98;0.88;;;8.90;99.90;;;;;;5012781;28;20032;-79
2022/09/20 04:16:39;;;;;;;1.23;0.80;;;9.00;99.90;;;;;;5010441;28;20109;-78
2022/09/20 04:19:36;;;;;;;0.30;0.30;;;9.00;99.90;;;;;;5016469;28;20108;-79
2022/09/20 04:22:02;;;;;;;0.63;0.63;;;9.00;99.90;;;;;;5012445;28;20497;-80
2022/09/20 04:24:36;;;;;;;0.60;0.60;;;9.00;99.90;;;;;;5009927;28;20029;-79
2022/09/20 04:27:11;;;;;;;0.88;0.80;;;9.00;99.90;;;;;;5013432;28;20535;-79
2022/09/20 04:29:41;;;;;;;1.48;0.75;;;9.00;99.90;;;;;;5011110;28;20455;-80
2022/09/20 04:32:44;;;;;;;0.77;0.60;;;9.00;99.90;;;;;;5010851;28;20080;-80
2022/09/20 04:38:20;;;;;;;0.50;0.50;;;9.00;99.90;;;;;;5008554;28;20052;-79
2022/09/20 04:41:07;;;;;;;1.48;0.55;;;9.10;99.90;;;;;;5011109;28;20038;-80
2022/09/20 04:44:00;;;;;;;0.60;0.60;;;9.00;99.90;;;;;;5011669;28;20045;-79
2022/09/20 04:46:55;;;;;;;0.77;0.77;;;9.00;99.90;;;;;;5011851;28;20087;-80
2022/09/20 04:49:50;;;;;;;0.60;0.60;;;8.90;99.90;;;;;;5009125;28;20033;-79
2022/09/20 04:52:44;;;;;;;0.50;0.50;;;8.90;99.90;;;;;;5009891;28;20030;-78
2022/09/20 04:55:43;;;;;;;0.60;0.60;;;9.00;99.90;;;;;;5011495;28;20017;-80
2022/09/20 04:58:36;;;;;;;1.08;0.88;;;9.00;99.90;;;;;;4983696;28;20037;-77
2022/09/20 05:01:34;;;;;;;0.50;0.50;;;9.00;99.90;;;;;;5009429;28;20519;-79
2022/09/20 05:04:24;;;;;;;0.93;0.60;;;9.00;99.90;;;;;;5008589;28;20112;-80
2022/09/20 05:07:18;;;;;;;0.85;0.60;;;8.90;99.90;;;;;;5008597;28;20387;-80
2022/09/20 05:10:13;;;;;;;0.70;0.70;;;8.90;99.90;;;;;;5012079;28;20392;-80
2022/09/20 05:13:22;;;;;;;0.50;0.50;;;8.90;99.90;;;;;;5011387;28;20034;-80
2022/09/20 05:16:27;;;;;;;0.60;0.50;;;8.90;99.90;;;;;;5012064;28;20029;-79
2022/09/20 05:19:02;;;;;;;1.35;0.80;;;8.90;99.90;;;;;;5010744;28;20104;-79
2022/09/20 05:21:57;;;;;;;0.65;0.65;;;8.90;99.90;;;;;;5002172;28;20093;-79
2022/09/20 05:24:37;;;;;;;0.80;0.80;;;8.90;99.90;;;;;;5008730;28;20092;-80
2022/09/20 05:27:40;;;;;;;1.20;1.10;;;8.90;99.90;;;;;;5009181;28;20124;-82
2022/09/20 05:30:22;;;;;;;1.17;0.88;;;9.00;99.90;;;;;;4994721;28;20558;-75
2022/09/20 05:33:09;;;;;;;1.33;1.00;;;9.00;99.90;;;;;;4994189;28;21687;-75
2022/09/20 05:35:57;;;;;;;1.00;0.90;;;9.20;99.90;;;;;;4997047;28;20038;-75
2022/09/20 05:38:47;;;;;;;1.33;0.93;;;9.30;99.90;;;;;;4998904;28;20030;-76
2022/09/20 05:41:44;;;;;;;0.85;0.82;;;9.20;99.90;;;;;;5008321;28;20040;-77
2022/09/20 05:44:18;;;;;;;0.68;0.50;;;9.30;99.90;;;;;;4996702;28;20044;-75
2022/09/20 05:47:12;;;;;;;0.75;0.75;;;9.50;99.90;;;;;;5003368;28;20022;-76
2022/09/20 05:49:49;;;;;;;0.60;0.60;;;9.50;99.90;;;;;;5004881;28;20030;-76
2022/09/20 05:52:32;;;;;;;0.88;0.80;;;9.60;99.90;;;;;;5004049;28;20033;-75
2022/09/20 05:55:27;;;;;;;0.88;0.70;;;9.60;99.90;;;;;;5004003;28;20045;-76
2022/09/20 05:57:55;;;;;;;1.40;1.30;;;9.70;99.90;;;;;;5006971;28;20108;-77
2022/09/20 06:00:27;;;;;;;1.58;0.80;;;9.70;99.90;;;;;;5000240;28;20060;-75
2022/09/20 06:03:08;;;;;;;1.05;0.68;;;9.70;99.90;;;;;;5005902;28;20034;-76
2022/09/20 06:06:12;;;;;;;0.55;0.55;;;9.70;99.90;;;;;;5001296;28;20456;-75
2022/09/20 06:09:08;;;;;;;0.98;0.80;;;9.80;99.90;;;;;;4998122;28;20149;-80
2022/09/20 06:11:52;;;;;;;0.77;0.75;;;9.90;99.90;;;;;;5004106;28;20029;-82
2022/09/20 06:14:42;;;;;;;0.73;0.73;;;10.00;99.90;;;;;;4998777;28;20056;-83
2022/09/20 06:17:29;;;;;;;4.93;1.00;;;10.10;99.90;;;;;;4997316;28;20037;-80
2022/09/20 06:20:25;;;;;;;3.70;1.00;;;10.00;99.90;;;;;;4999516;28;20038;-80
2022/09/20 06:22:55;;;;;;;2.00;0.85;;;10.10;99.90;;;;;;5000832;28;20057;-80
2022/09/20 06:25:28;;;;;;;2.35;1.10;;;10.10;99.90;;;;;;5002558;28;20041;-79
2022/09/20 06:27:59;;;;;;;1.92;0.95;;;10.20;99.90;;;;;;5004681;28;20160;-80
2022/09/20 06:30:28;;;;;;;2.58;1.50;;;10.10;99.90;;;;;;5000563;28;20083;-80
2022/09/20 06:33:23;;;;;;;0.88;0.88;;;10.00;99.90;;;;;;5000729;28;20165;-80
2022/09/20 06:42:02;;;;;;;3.22;0.85;;;9.80;99.90;;;;;;5002637;28;20113;-78
2022/09/20 06:44:28;;;;;;;0.77;0.73;;;9.90;99.90;;;;;;5002700;28;20117;-80
2022/09/20 06:46:53;;;;;;;2.30;1.10;;;10.00;99.90;;;;;;5000336;28;20030;-83
2022/09/20 06:49:20;;;;;;;2.40;0.90;;;10.10;99.90;;;;;;4998114;28;20810;-79
2022/09/20 06:51:47;;;;;;;0.70;0.70;;;9.90;99.90;;;;;;5007847;28;20068;-85
2022/09/20 06:54:16;;;;;;;1.95;1.25;;;9.70;99.90;;;;;;5000086;28;20105;-83
2022/09/20 06:56:43;;;;;;;0.68;0.68;;;9.70;99.90;;;;;;5001545;28;20073;-79
2022/09/20 06:59:13;;;;;;;0.70;0.70;;;9.70;99.90;;;;;;5004655;28;20092;-82
2022/09/20 07:01:39;;;;;;;1.55;1.00;;;9.60;99.90;;;;;;5013753;28;20088;-77
2022/09/20 07:04:05;;;;;;;1.52;1.08;;;9.60;99.90;;;;;;5004366;28;20052;-83
2022/09/20 07:06:31;;;;;;;0.80;0.80;;;9.50;99.90;;;;;;5004873;28;20026;-83
2022/09/20 07:08:57;;;;;;;1.52;1.10;;;9.50;99.90;;;;;;5002552;28;20471;-83
2022/09/20 07:11:22;;;;;;;1.95;1.58;;;9.40;99.90;;;;;;4998086;28;20133;-81
2022/09/20 07:13:52;;;;;;;1.65;1.17;;;9.40;99.90;;;;;;5008682;28;20092;-82
2022/09/20 07:16:19;;;;;;;1.33;1.00;;;9.40;99.90;;;;;;5008169;28;20021;-77
2022/09/20 07:18:45;;;;;;;1.88;1.25;;;9.40;99.90;;;;;;5003775;28;20042;-81
2022/09/20 07:21:12;;;;;;;2.33;1.98;;;9.40;99.90;;;;;;5005284;28;20441;-78
2022/09/20 07:23:38;;;;;;;3.90;1.30;;;9.40;99.90;;;;;;5003513;28;20052;-78
2022/09/20 07:26:16;;;;;;;2.58;1.10;;;9.40;99.90;;;;;;4994989;28;20038;-80
2022/09/20 07:28:41;;;;;;;3.00;1.27;;;9.50;99.90;;;;;;4999966;28;20026;-80
2022/09/20 07:31:07;;;;;;;1.30;1.20;;;9.60;99.90;;;;;;5006099;28;20107;-80
2022/09/20 07:33:36;;;;;;;2.92;1.50;;;9.70;99.90;;;;;;5006750;28;20025;-80
2022/09/20 07:36:01;;;;;;;1.55;1.45;;;9.80;99.90;;;;;;5003450;28;20053;-79
2022/09/20 07:38:27;;;;;;;1.30;1.02;;;9.90;99.90;;;;;;5004601;28;20559;-79
2022/09/20 07:41:01;;;;;;;2.00;1.30;;;10.00;99.90;;;;;;5004699;28;20057;-80
2022/09/20 07:43:27;;;;;;;3.55;1.50;;;10.10;99.90;;;;;;5007770;28;20036;-79
2022/09/20 07:45:54;;;;;;;2.08;0.90;;;10.20;99.90;;;;;;5005935;28;20116;-79
2022/09/20 07:48:25;;;;;;;1.85;1.10;;;10.30;99.90;;;;;;4997685;28;20592;-81
2022/09/20 07:51:00;;;;;;;0.98;0.90;;;10.40;99.90;;;;;;5001235;28;20034;-80
2022/09/20 07:53:26;;;;;;;1.02;0.90;;;10.50;99.90;;;;;;5005427;28;20049;-81
2022/09/20 07:56:00;;;;;;;1.90;1.38;;;10.60;99.90;;;;;;5002643;28;20038;-80
2022/09/20 07:58:26;;;;;;;0.75;0.75;;;10.60;99.90;;;;;;5002967;28;20515;-81
2022/09/20 08:00:56;;;;;;;4.57;1.00;;;10.70;99.90;;;;;;4993969;28;20239;-79
2022/09/20 08:03:23;;;;;;;1.00;0.80;;;10.80;99.90;;;;;;5008005;28;20026;-80
2022/09/20 08:05:49;;;;;;;3.10;1.00;;;11.00;99.90;;;;;;5006047;28;20659;-79
2022/09/20 08:08:16;;;;;;;1.08;0.98;;;11.00;99.90;;;;;;4999332;28;20094;-80
2022/09/20 08:10:42;;;;;;;6.53;0.80;;;11.10;99.90;;;;;;4995401;28;20057;-78
2022/09/20 08:13:08;;;;;;;0.98;0.80;;;11.30;99.90;;;;;;5002734;28;20041;-79
2022/09/20 08:15:34;;;;;;;0.70;0.70;;;11.40;99.90;;;;;;5008595;28;20022;-78
2022/09/20 08:18:00;;;;;;;0.70;0.70;;;11.50;99.90;;;;;;5010456;28;20129;-80
2022/09/20 08:20:26;;;;;;;1.42;1.00;;;11.60;99.90;;;;;;4994510;28;20122;-79
2022/09/20 08:22:54;;;;;;;0.85;0.70;;;11.60;99.90;;;;;;4995451;28;20117;-81
2022/09/20 08:25:19;;;;;;;1.60;0.95;;;11.70;99.90;;;;;;5002354;28;20026;-79
2022/09/20 08:27:52;;;;;;;2.97;0.98;;;11.70;99.90;;;;;;4997411;28;20041;-79
2022/09/20 08:30:18;;;;;;;0.88;0.70;;;11.90;99.90;;;;;;5001930;28;20018;-78
2022/09/20 08:32:43;;;;;;;0.95;0.65;;;11.90;99.90;;;;;;5006801;28;20440;-78
2022/09/20 08:35:10;;;;;;;1.25;0.77;;;12.10;99.90;;;;;;5004792;28;20033;-81
2022/09/20 08:37:36;;;;;;;0.90;0.85;;;12.20;99.90;;;;;;5007240;28;20045;-80
2022/09/20 08:40:03;;;;;;;2.25;1.00;;;12.10;99.90;;;;;;5008081;28;20463;-79
2022/09/20 08:42:35;;;;;;;1.10;1.00;;;12.20;99.90;;;;;;5007748;28;20365;-79
2022/09/20 08:45:05;;;;;;;1.05;0.70;;;12.40;99.90;;;;;;5005094;28;20033;-83
2022/09/20 08:47:34;;;;;;;1.77;1.00;;;12.60;99.90;;;;;;5006555;28;20056;-79
2022/09/20 08:50:03;;;;;;;0.50;0.50;;;12.70;99.90;;;;;;5004991;28;20029;-80
2022/09/20 08:52:36;;;;;;;3.75;0.77;;;12.90;99.90;;;;;;4995844;28;20030;-83
2022/09/20 08:55:12;;;;;;;1.58;1.05;;;12.90;99.90;;;;;;4995746;28;20732;-79
2022/09/20 08:57:37;;;;;;;1.48;0.93;;;12.90;99.90;;;;;;5001063;28;20060;-80
2022/09/20 09:00:05;;;;;;;2.20;1.20;;;13.10;99.90;;;;;;4998696;28;20497;-80
2022/09/20 09:02:31;;;;;;;0.70;0.70;;;13.20;99.90;;;;;;4996587;28;20058;-78
2022/09/20 09:04:57;;;;;;;2.42;0.93;;;13.20;99.90;;;;;;5001933;28;20044;-79
2022/09/20 09:07:26;;;;;;;0.90;0.90;;;13.20;99.90;;;;;;5007414;28;20022;-78
2022/09/20 09:09:54;;;;;;;0.70;0.70;;;13.30;99.90;;;;;;5005381;28;20044;-79
2022/09/20 09:12:26;;;;;;;1.65;0.70;;;13.50;99.90;;;;;;4996911;28;20022;-81
2022/09/20 09:14:56;;;;;;;1.85;1.00;;;13.60;99.90;;;;;;4996531;28;20044;-83
2022/09/20 09:17:27;;;;;;;3.80;0.50;;;13.70;99.90;;;;;;4981015;28;20090;-80
2022/09/20 09:20:21;;;;;;;0.80;0.60;;;13.70;99.90;;;;;;5001002;28;20053;-81
2022/09/20 09:23:17;;;;;;;1.33;0.70;;;13.80;99.90;;;;;;5001858;28;20044;-81
2022/09/20 09:25:42;;;;;;;4.30;0.77;;;13.80;99.90;;;;;;4983592;28;20074;-80
2022/09/20 09:28:08;;;;;;;0.95;0.70;;;14.00;99.90;;;;;;5010526;28;20046;-80
2022/09/20 09:30:48;;;;;;;0.60;0.60;;;14.20;99.90;;;;;;5002495;28;20084;-82
2022/09/20 09:33:17;;;;;;;3.05;1.05;;;14.50;99.90;;;;;;5010723;28;20030;-83
2022/09/20 09:35:44;;;;;;;0.75;0.50;;;14.50;99.90;;;;;;5010672;28;20026;-80
2022/09/20 09:38:20;;;;;;;0.90;0.70;;;14.90;99.90;;;;;;5011270;28;20026;-79
2022/09/20 09:41:00;;;;;;;1.75;0.80;;;14.60;99.90;;;;;;5006485;28;20030;-80
2022/09/20 09:43:34;;;;;;;0.70;0.70;;;14.60;99.90;;;;;;5005457;28;20042;-81
2022/09/20 09:46:25;;;;;;;1.02;0.60;;;15.00;99.90;;;;;;5010654;28;20025;-82
2022/09/20 09:49:15;;;;;;;0.77;0.77;;;15.70;99.90;;;;;;5011062;28;20532;-79
2022/09/20 09:51:57;;;;;;;1.17;0.82;;;15.90;99.90;;;;;;4999687;28;20305;-81
2022/09/20 09:54:27;;;;;;;1.08;0.98;;;15.50;99.90;;;;;;4998612;28;20026;-83
2022/09/20 09:57:16;;;;;;;3.25;1.45;;;15.80;99.90;;;;;;5005570;28;20092;-79
2022/09/20 09:59:51;;;;;;;4.45;1.00;;;16.60;99.90;;;;;;5009277;28;20109;-84
2022/09/20 10:02:43;;;;;;;1.02;0.93;;;17.10;99.90;;;;;;5016301;28;20086;-81
2022/09/20 10:05:27;;;;;;;2.63;0.93;;;16.90;99.90;;;;;;4969974;28;20064;-79
2022/09/20 10:08:09;;;;;;;0.70;0.70;;;16.60;99.90;;;;;;5010565;28;20030;-80
2022/09/20 10:11:11;;;;;;;0.95;0.60;;;16.30;99.90;;;;;;5010590;28;20481;-80
2022/09/20 10:13:50;;;;;;;3.65;0.85;;;16.10;99.90;;;;;;5010498;28;20030;-80
2022/09/20 10:16:28;;;;;;;2.35;1.00;;;16.40;99.90;;;;;;5008397;28;20042;-79
2022/09/20 10:19:22;;;;;;;0.60;0.60;;;17.20;98.90;;;;;;5010404;28;20077;-79
2022/09/20 10:22:30;;;;;;;2.92;1.00;;;17.60;98.30;;;;;;5009563;28;20546;-79
2022/09/20 10:25:18;;;;;;;1.58;0.90;;;17.70;96.00;;;;;;5009327;28;20041;-79
2022/09/20 10:28:09;;;;;;;1.80;1.15;;;16.90;97.10;;;;;;5010459;28;20026;-82
2022/09/20 10:31:04;;;;;;;1.08;0.95;;;16.60;97.70;;;;;;5010126;28;20026;-79
2022/09/20 10:33:42;;;;;;;1.70;1.10;;;15.90;99.90;;;;;;5008902;28;20542;-80
2022/09/20 10:36:32;;;;;;;1.77;1.45;;;15.70;99.90;;;;;;5006429;28;20064;-80
2022/09/20 10:39:07;;;;;;;2.25;1.55;;;15.30;99.90;;;;;;4995475;28;20492;-79
2022/09/20 10:45:01;;;;;;;1.23;1.13;;;14.60;99.90;;;;;;5009669;28;20076;-79
2022/09/20 10:47:33;;;;;;;1.95;1.20;;;14.40;99.90;;;;;;5004627;28;20042;-78
2022/09/20 10:50:03;;;;;;;1.58;1.27;;;14.30;99.90;;;;;;5001367;28;20037;-80
2022/09/20 10:52:36;;;;;;;1.92;1.50;;;14.30;99.90;;;;;;5008738;28;20022;-81
2022/09/20 10:55:10;;;;;;;1.50;1.20;;;14.30;99.90;;;;;;5009402;28;20029;-79
2022/09/20 10:57:54;;;;;;;2.95;1.50;;;14.40;99.90;;;;;;5008303;28;20766;-79
2022/09/20 11:00:23;;;;;;;1.15;0.90;;;14.40;99.90;;;;;;5009392;28;20033;-81
2022/09/20 11:03:21;;;;;;;0.30;0.30;;;13.30;99.90;;;;;;5011559;28;20493;-82
2022/09/20 11:06:24;;;;;;;0.60;0.52;;;12.30;99.90;;;;;;4975512;28;20042;-80
2022/09/20 11:08:55;;;;;;;0.30;0.20;;;11.50;99.90;;;;;;5008918;28;20369;-80
2022/09/20 11:11:22;;;;;;;0.40;0.40;;;11.20;99.90;;;;;;5011452;28;20695;-80
2022/09/20 11:14:09;;;;;;;1.20;0.50;;;11.20;99.90;;;;;;5004749;28;20068;-79
2022/09/20 11:16:55;;;;;;;0.20;0.20;;;11.20;99.90;;;;;;5008825;28;20053;-79
2022/09/20 11:19:30;;;;;;;0.32;0.32;;;11.10;99.90;;;;;;5008882;28;20054;-79
2022/09/20 11:22:04;;;;;;;0.22;0.22;;;11.20;99.90;;;;;;5007820;28;20108;-80
2022/09/20 11:24:35;;;;;;;0.32;0.32;;;11.30;99.90;;;;;;5006139;28;20037;-81
2022/09/20 11:27:11;;;;;;;0.40;0.40;;;11.40;99.90;;;;;;4996729;28;20413;-80
2022/09/20 11:29:50;;;;;;;3.40;0.50;;;11.50;99.90;;;;;;5009009;28;20034;-80
2022/09/20 11:32:35;;;;;;;0.45;0.43;;;11.60;99.90;;;;;;5009237;28;20045;-80
2022/09/20 11:35:17;;;;;;;0.30;0.30;;;12.00;99.90;;;;;;5007556;28;20026;-80
2022/09/20 11:37:56;;;;;;;0.77;0.68;;;12.20;99.90;;;;;;5000963;28;20362;-80
2022/09/20 11:40:36;;;;;;;0.85;0.55;;;12.70;99.90;;;;;;5008710;28;20036;-80
2022/09/20 11:43:06;;;;;;;0.75;0.75;;;13.80;99.90;;;;;;5007774;28;20054;-80
2022/09/20 11:45:33;;;;;;;2.40;1.02;;;16.10;99.90;;;;;;5007681;28;20038;-80
2022/09/20 11:48:13;;;;;;;2.05;1.08;;;20.30;99.90;;;;;;4997031;28;20084;-81
2022/09/20 11:51:05;;;;;;;3.08;1.25;;;22.20;90.20;;;;;;5008485;28;20092;-81
2022/09/20 11:53:49;;;;;;;1.95;1.10;;;25.20;71.30;;;;;;5008314;28;20032;-80
2022/09/20 11:56:29;;;;;;;1.20;0.80;;;27.50;59.60;;;;;;5007559;28;20021;-81
2022/09/20 11:58:57;;;;;;;2.23;1.10;;;28.20;57.00;;;;;;5007469;28;20029;-80
2022/09/20 12:01:28;;;;;;;1.33;1.02;;;29.50;53.00;;;;;;5009992;28;20026;-79
2022/09/20 12:04:01;;;;;;;5.30;1.70;;;28.30;52.20;;;;;;5007542;28;20030;-80
2022/09/20 12:06:32;;;;;;;6.10;1.60;;;22.60;65.70;;;;;;5001923;28;20038;-80
2022/09/20 12:09:03;;;;;;;2.25;1.52;;;19.40;83.00;;;;;;5008234;28;20030;-79
2022/09/20 12:11:34;;;;;;;3.17;1.67;;;22.80;76.50;;;;;;5011372;28;20030;-79
2022/09/20 12:14:26;;;;;;;2.45;1.70;;;21.70;75.10;;;;;;5007901;28;20488;-79
2022/09/20 12:16:52;;;;;;;2.65;1.55;;;24.50;72.40;;;;;;4999774;28;20080;-79
2022/09/20 12:19:20;;;;;;;1.73;0.98;;;21.80;72.60;;;;;;5006906;28;20299;-79
2022/09/20 12:21:58;;;;;;;1.00;0.80;;;19.30;80.90;;;;;;5008034;28;20026;-79
2022/09/20 12:24:40;;;;;;;3.13;0.80;;;18.70;83.20;;;;;;5004291;28;20029;-79
2022/09/20 12:27:40;;;;;;;1.00;0.90;;;18.70;83.40;;;;;;5003482;28;20052;-81
2022/09/20 12:30:17;;;;;;;1.38;0.95;;;18.80;85.60;;;;;;5007745;28;20037;-79
2022/09/20 12:32:50;;;;;;;1.17;0.73;;;18.70;88.90;;;;;;5006593;28;20516;-80
2022/09/20 12:35:37;;;;;;;1.05;0.80;;;19.60;92.00;;;;;;4989303;28;20034;-79
2022/09/20 12:38:30;;;;;;;3.05;1.20;;;21.70;82.50;;;;;;5007601;28;20034;-80
2022/09/20 12:41:04;;;;;;;1.35;0.98;;;20.50;78.20;;;;;;5007870;28;20455;-80
2022/09/20 12:43:31;;;;;;;0.80;0.80;;;21.30;75.90;;;;;;5004292;28;20026;-78
2022/09/20 12:45:57;;;;;;;1.02;0.93;;;22.80;70.90;;;;;;5007383;28;20489;-78
2022/09/20 12:48:23;;;;;;;2.33;0.95;;;21.60;74.00;;;;;;5008036;28;20053;-80
2022/09/20 12:54:11;;;;;;;0.77;0.75;;;19.00;86.30;;;;;;4998192;28;20147;-81
2022/09/20 12:56:39;;;;;;;1.25;0.80;;;16.90;91.60;;;;;;5007599;28;20101;-84
2022/09/20 12:59:22;;;;;;;0.50;0.50;;;16.00;96.60;;;;;;5009381;28;20041;-82
2022/09/20 13:01:47;;;;;;;0.35;0.35;;;15.70;98.00;;;;;;5016931;28;20049;-79
2022/09/20 13:04:39;;;;;;;0.40;0.40;;;15.00;96.20;;;;;;5009252;28;20030;-84
2022/09/20 13:07:41;;;;;;;0.40;0.40;;;15.10;97.00;;;;;;5010340;28;20026;-80
2022/09/20 13:10:16;;;;;;;;;;;17.50;88.00;;;;;;5009571;28;20366;-79
2022/09/20 13:12:43;;;;;;;0.20;0.20;;;21.70;69.90;;;;;;5013338;28;19909;-79
2022/09/20 13:15:16;;;;;;;0.20;0.20;;;26.80;56.30;;;;;;5004606;28;20040;-79
2022/09/20 13:17:43;;;;;;;0.30;0.30;;;26.50;51.60;;;;;;5011069;28;20034;-81
2022/09/20 13:20:18;;;;;;;0.30;0.30;;;23.70;57.20;;;;;;5011166;28;20404;-81
2022/09/20 13:22:44;;;;;;;0.90;0.50;;;21.20;64.70;;;;;;5011113;28;20026;-79
2022/09/20 13:25:14;;;;;;;0.28;0.22;;;20.00;69.40;;;;;;5008009;28;20112;-80
2022/09/20 13:27:46;;;;;;;0.70;0.70;;;19.00;77.70;;;;;;5010917;28;20149;-80
2022/09/20 13:30:24;;;;;;;0.43;0.43;;;17.90;82.10;;;;;;5011432;28;20029;-80
2022/09/20 13:32:50;;;;;;;0.63;0.47;;;17.30;85.00;;;;;;5009588;28;20113;-79
2022/09/20 13:35:26;;;;;;;0.52;0.50;;;17.60;83.50;;;;;;5011480;28;20113;-80
2022/09/20 13:38:01;;;;;;;0.85;0.40;;;17.60;87.30;;;;;;5010943;28;20041;-83
2022/09/20 13:40:43;;;;;;;1.13;0.52;;;17.10;86.60;;;;;;5010960;28;20499;-79
2022/09/20 13:43:35;;;;;;;0.30;0.30;;;16.80;90.80;;;;;;5010325;28;20032;-79
2022/09/20 13:46:16;;;;;;;0.47;0.47;;;16.90;91.10;;;;;;4996821;28;20029;-80
2022/09/20 13:48:46;;;;;;;0.28;0.28;;;19.80;80.70;;;;;;4999515;28;20086;-81
2022/09/20 13:51:19;;;;;;;0.65;0.40;;;25.80;58.30;;;;;;5000963;28;20472;-82
2022/09/20 13:53:48;;;;;;;0.40;0.40;;;26.40;53.00;;;;;;5002730;28;20064;-79
2022/09/20 13:56:24;;;;;;;0.40;0.40;;;24.10;58.20;;;;;;5003478;28;20057;-87
2022/09/20 13:58:51;;;;;;;0.45;0.38;;;24.30;55.90;;;;;;5002456;28;20030;-88
2022/09/20 14:01:40;;;;;;;0.65;0.40;;;26.20;52.30;;;;;;5013696;28;20033;-87
2022/09/20 14:04:12;;;;;;;0.82;0.43;;;31.30;47.60;;;;;;5003338;28;20590;-86
2022/09/20 14:06:41;;;;;;;0.82;0.40;;;28.60;46.80;;;;;;5006942;28;20619;-80
2022/09/20 14:09:15;;;;;;;0.30;0.30;;;30.50;43.30;;;;;;5004306;28;20113;-83
2022/09/20 14:11:40;;;;;;;0.35;0.35;;;28.60;46.40;;;;;;5010851;28;20034;-86